HUAL Seoul — LADO6 — position and weather

sailwx.info

Track history (hours):
 
Tides and Currents Weather Stations Pressure Air Temp Water Temp Dewpoint Dewpoint Depression Visibility Wind Speed Wind Dir Waves Ship Positions

HUAL Seoul

Last reported at 2016-Sep-12 01:33 UTC. Time now 2016-Sep-30 10:03 UTC.
Position N 33°56' E 035°28'.
Warning: this ship's position is 18 days out of date.

Type: Cargo ship. MMSI: 257496000.

Date/timePositionNaut miles runAvg speedWind from/ knotsBaromVisibWave heightAir tempDewpointWater temp
2016-Sep-12 01:33N 33°56' E 035°28'2311.6
2016-Sep-11 23:34N 33°56' E 035°00'1414.1
2016-Sep-11 22:33N 33°57' E 034°44'1414.1
2016-Sep-11 21:33N 33°58' E 034°27'1414.1
2016-Sep-11 20:33N 33°58' E 034°10'1414.2
2016-Sep-11 19:33N 33°59' E 033°53'1514.8
2016-Sep-11 18:33N 34°00' E 033°35'1514.7
2016-Sep-11 17:34N 34°01' E 033°17'1514.7
2016-Sep-11 16:33N 34°02' E 032°59'1514.6
2016-Sep-11 15:33N 34°03' E 032°42'1514.7
2016-Sep-11 14:33N 34°04' E 032°24'1514.6
2016-Sep-11 13:34N 34°05' E 032°07'1514.6
2016-Sep-11 12:33N 34°06' E 031°49'1514.6
2016-Sep-11 11:33N 34°07' E 031°31'1514.7
2016-Sep-11 10:33N 34°08' E 031°14'3015.0
2016-Sep-11 08:34N 34°09' E 030°38'  
2016-Sep-09 04:33N 36°23' E 014°39'1515.4
2016-Sep-09 03:33N 36°27' E 014°21'1515.3
2016-Sep-09 02:33N 36°31' E 014°02'1515.3
2016-Sep-09 01:34N 36°36' E 013°44'1715.7
2016-Sep-09 00:29N 36°41' E 013°24'42815.2
2016-Sep-07 20:15N 37°16' E 004°30'10815.9
2016-Sep-07 13:28N 36°57' E 002°16'1415.8
2016-Sep-07 12:33N 36°55' E 001°59'1615.7
2016-Sep-07 11:33N 36°52' E 001°39'5616.0
2016-Sep-07 08:04N 36°42' E 000°31'917.2
2016-Sep-07 07:33N 36°40' E 000°20'1616.1
2016-Sep-07 06:33N 36°37' E 000°00'3115.4
2016-Sep-07 04:31N 36°32' W 000°38'1516.1
2016-Sep-07 03:33N 36°29' W 000°57'1615.7
2016-Sep-07 02:33N 36°27' W 001°16'1615.5
2016-Sep-07 01:33N 36°24' W 001°35'1615.6
2016-Sep-07 00:33N 36°21' W 001°54'1515.5
2016-Sep-06 23:33N 36°18' W 002°13'1615.7
2016-Sep-06 22:33N 36°16' W 002°33'1615.6
2016-Sep-06 21:33N 36°14' W 002°52'1515.3
2016-Sep-06 20:33N 36°12' W 003°10'1615.6
2016-Sep-06 19:33N 36°10' W 003°30'1715.6
2016-Sep-06 18:29N 36°08' W 003°50'5416.1
2016-Sep-06 15:08N 36°01' W 004°57'1016.8
2016-Sep-06 14:33N 35°60' W 005°09'1616.0
2016-Sep-06 13:34N 35°56' W 005°28'3 0.7
2016-Sep-06 08:25N 35°53' W 005°30'0 0.0
2016-Sep-06 07:31N 35°53' W 005°30'0 0.0
2016-Sep-06 06:22N 35°53' W 005°30'0 0.2
2016-Sep-06 04:33N 35°54' W 005°30'6 5.2
2016-Sep-06 03:25N 35°54' W 005°37'1111.3
2016-Sep-06 02:29N 35°53' W 005°50'1414.2
2016-Sep-06 01:32N 35°53' W 006°07'5814.6
2016-Sep-05 21:33N 35°51' W 007°18'6314.9
2016-Sep-05 17:19N 35°48' W 008°36'1114.9
2016-Sep-05 16:33N 35°47' W 008°50'1515.3
2016-Sep-05 15:33N 35°47' W 009°09'1515.2
2016-Sep-05 14:33N 35°46' W 009°28'1515.4
2016-Sep-05 13:33N 35°46' W 009°47'1515.2
2016-Sep-05 12:33N 35°44' W 010°05'1515.2
2016-Sep-05 11:33N 35°42' W 010°24'1010.0
2016-Sep-05 10:33N 35°40' W 010°36'3 3.4
2016-Sep-05 09:33N 35°40' W 010°40'1 0.9
2016-Sep-05 08:33N 35°41' W 010°41'1 1.2
2016-Sep-05 07:33N 35°42' W 010°41'8 7.7
2016-Sep-05 06:34N 35°41' W 010°50'2512.7
2016-Sep-05 04:34N 35°38' W 011°21'1312.8
2016-Sep-05 03:34N 35°37' W 011°37'1313.1
2016-Sep-05 02:32N 35°36' W 011°53'1313.2
2016-Sep-05 01:32N 35°35' W 012°10'1313.1
2016-Sep-05 00:33N 35°33' W 012°25'1312.8
2016-Sep-04 23:33N 35°32' W 012°41'1312.6
2016-Sep-04 22:33N 35°31' W 012°57'2713.1
2016-Sep-04 20:32N 35°28' W 013°29'1312.9
2016-Sep-04 19:33N 35°27' W 013°44'1312.9
2016-Sep-04 18:33N 35°26' W 013°60'1313.1
2016-Sep-04 17:33N 35°24' W 014°16'1512.9
2016-Sep-04 16:22N 35°23' W 014°35'1113.1
2016-Sep-04 15:33N 35°22' W 014°48'1313.2
2016-Sep-04 14:33N 35°20' W 015°04'1312.7
2016-Sep-04 13:33N 35°19' W 015°19'1313.0
2016-Sep-04 12:33N 35°18' W 015°35'43713.6
2016-Sep-03 04:32N 34°13' W 024°21'1713.5
2016-Sep-03 03:17N 34°09' W 024°41'  
Track history (hours):
 
Tides and Currents Weather Stations Pressure Air Temp Water Temp Dewpoint Dewpoint Depression Visibility Wind Speed Wind Dir Waves Ship Positions

HUAL Seoul

Last reported at 2016-Sep-12 01:33 UTC. Time now 2016-Sep-30 10:03 UTC.
Position N 33°56' E 035°28'.
Warning: this ship's position is 18 days out of date.

Type: Cargo ship. MMSI: 257496000.

Date/timePositionNaut miles runAvg speedWind from/ knotsBaromVisibWave heightAir tempDewpointWater temp
2016-Sep-12 01:33N 33°56' E 035°28'2311.6
2016-Sep-11 23:34N 33°56' E 035°00'1414.1
2016-Sep-11 22:33N 33°57' E 034°44'1414.1
2016-Sep-11 21:33N 33°58' E 034°27'1414.1
2016-Sep-11 20:33N 33°58' E 034°10'1414.2
2016-Sep-11 19:33N 33°59' E 033°53'1514.8
2016-Sep-11 18:33N 34°00' E 033°35'1514.7
2016-Sep-11 17:34N 34°01' E 033°17'1514.7
2016-Sep-11 16:33N 34°02' E 032°59'1514.6
2016-Sep-11 15:33N 34°03' E 032°42'1514.7
2016-Sep-11 14:33N 34°04' E 032°24'1514.6
2016-Sep-11 13:34N 34°05' E 032°07'1514.6
2016-Sep-11 12:33N 34°06' E 031°49'1514.6
2016-Sep-11 11:33N 34°07' E 031°31'1514.7
2016-Sep-11 10:33N 34°08' E 031°14'3015.0
2016-Sep-11 08:34N 34°09' E 030°38'  
2016-Sep-09 04:33N 36°23' E 014°39'1515.4
2016-Sep-09 03:33N 36°27' E 014°21'1515.3
2016-Sep-09 02:33N 36°31' E 014°02'1515.3
2016-Sep-09 01:34N 36°36' E 013°44'1715.7
2016-Sep-09 00:29N 36°41' E 013°24'42815.2
2016-Sep-07 20:15N 37°16' E 004°30'10815.9
2016-Sep-07 13:28N 36°57' E 002°16'1415.8
2016-Sep-07 12:33N 36°55' E 001°59'1615.7
2016-Sep-07 11:33N 36°52' E 001°39'5616.0
2016-Sep-07 08:04N 36°42' E 000°31'917.2
2016-Sep-07 07:33N 36°40' E 000°20'1616.1
2016-Sep-07 06:33N 36°37' E 000°00'3115.4
2016-Sep-07 04:31N 36°32' W 000°38'1516.1
2016-Sep-07 03:33N 36°29' W 000°57'1615.7
2016-Sep-07 02:33N 36°27' W 001°16'1615.5
2016-Sep-07 01:33N 36°24' W 001°35'1615.6
2016-Sep-07 00:33N 36°21' W 001°54'1515.5
2016-Sep-06 23:33N 36°18' W 002°13'1615.7
2016-Sep-06 22:33N 36°16' W 002°33'1615.6
2016-Sep-06 21:33N 36°14' W 002°52'1515.3
2016-Sep-06 20:33N 36°12' W 003°10'1615.6
2016-Sep-06 19:33N 36°10' W 003°30'1715.6
2016-Sep-06 18:29N 36°08' W 003°50'5416.1
2016-Sep-06 15:08N 36°01' W 004°57'1016.8
2016-Sep-06 14:33N 35°60' W 005°09'1616.0
2016-Sep-06 13:34N 35°56' W 005°28'3 0.7
2016-Sep-06 08:25N 35°53' W 005°30'0 0.0
2016-Sep-06 07:31N 35°53' W 005°30'0 0.0
2016-Sep-06 06:22N 35°53' W 005°30'0 0.2
2016-Sep-06 04:33N 35°54' W 005°30'6 5.2
2016-Sep-06 03:25N 35°54' W 005°37'1111.3
2016-Sep-06 02:29N 35°53' W 005°50'1414.2
2016-Sep-06 01:32N 35°53' W 006°07'5814.6
2016-Sep-05 21:33N 35°51' W 007°18'6314.9
2016-Sep-05 17:19N 35°48' W 008°36'1114.9
2016-Sep-05 16:33N 35°47' W 008°50'1515.3
2016-Sep-05 15:33N 35°47' W 009°09'1515.2
2016-Sep-05 14:33N 35°46' W 009°28'1515.4
2016-Sep-05 13:33N 35°46' W 009°47'1515.2
2016-Sep-05 12:33N 35°44' W 010°05'1515.2
2016-Sep-05 11:33N 35°42' W 010°24'1010.0
2016-Sep-05 10:33N 35°40' W 010°36'3 3.4
2016-Sep-05 09:33N 35°40' W 010°40'1 0.9
2016-Sep-05 08:33N 35°41' W 010°41'1 1.2
2016-Sep-05 07:33N 35°42' W 010°41'8 7.7
2016-Sep-05 06:34N 35°41' W 010°50'2512.7
2016-Sep-05 04:34N 35°38' W 011°21'1312.8
2016-Sep-05 03:34N 35°37' W 011°37'1313.1
2016-Sep-05 02:32N 35°36' W 011°53'1313.2
2016-Sep-05 01:32N 35°35' W 012°10'1313.1
2016-Sep-05 00:33N 35°33' W 012°25'1312.8
2016-Sep-04 23:33N 35°32' W 012°41'1312.6
2016-Sep-04 22:33N 35°31' W 012°57'2713.1
2016-Sep-04 20:32N 35°28' W 013°29'1312.9
2016-Sep-04 19:33N 35°27' W 013°44'1312.9
2016-Sep-04 18:33N 35°26' W 013°60'1313.1
2016-Sep-04 17:33N 35°24' W 014°16'1512.9
2016-Sep-04 16:22N 35°23' W 014°35'1113.1
2016-Sep-04 15:33N 35°22' W 014°48'1313.2
2016-Sep-04 14:33N 35°20' W 015°04'1312.7
2016-Sep-04 13:33N 35°19' W 015°19'1313.0
2016-Sep-04 12:33N 35°18' W 015°35'43713.6
2016-Sep-03 04:32N 34°13' W 024°21'1713.5
2016-Sep-03 03:17N 34°09' W 024°41'  

Dump ship's entire track history